sensor_id;sensor_type;location;lat;lon;timestamp;temperature;humidity
46364;DHT22;32071;49.036;9.344;2023-04-15T00:00:12;4.00;99.90
46364;DHT22;32071;49.036;9.344;2023-04-15T00:02:37;4.00;99.90
46364;DHT22;32071;49.036;9.344;2023-04-15T00:05:04;4.00;99.90
46364;DHT22;32071;49.036;9.344;2023-04-15T00:07:30;3.90;99.90
46364;DHT22;32071;49.036;9.344;2023-04-15T00:09:56;3.90;99.90
46364;DHT22;32071;49.036;9.344;2023-04-15T00:12:26;3.80;99.90
46364;DHT22;32071;49.036;9.344;2023-04-15T00:14:52;3.80;99.90
46364;DHT22;32071;49.036;9.344;2023-04-15T00:17:19;3.80;99.90
46364;DHT22;32071;49.036;9.344;2023-04-15T00:19:44;3.70;99.90
46364;DHT22;32071;49.036;9.344;2023-04-15T00:22:11;3.70;99.90
46364;DHT22;32071;49.036;9.344;2023-04-15T00:24:37;3.80;99.90
46364;DHT22;32071;49.036;9.344;2023-04-15T00:27:03;3.90;99.90
46364;DHT22;32071;49.036;9.344;2023-04-15T00:29:29;3.90;99.90
46364;DHT22;32071;49.036;9.344;2023-04-15T00:31:55;4.00;99.90
46364;DHT22;32071;49.036;9.344;2023-04-15T00:34:22;4.00;99.90
46364;DHT22;32071;49.036;9.344;2023-04-15T00:36:48;4.10;99.90
46364;DHT22;32071;49.036;9.344;2023-04-15T00:39:13;4.00;99.90
46364;DHT22;32071;49.036;9.344;2023-04-15T00:41:41;4.00;99.90
46364;DHT22;32071;49.036;9.344;2023-04-15T00:44:07;4.00;99.90
46364;DHT22;32071;49.036;9.344;2023-04-15T00:46:35;3.90;99.90
46364;DHT22;32071;49.036;9.344;2023-04-15T00:49:03;3.90;99.90
46364;DHT22;32071;49.036;9.344;2023-04-15T00:51:29;3.90;99.90
46364;DHT22;32071;49.036;9.344;2023-04-15T00:53:56;3.90;99.90
46364;DHT22;32071;49.036;9.344;2023-04-15T00:56:22;3.80;99.90
46364;DHT22;32071;49.036;9.344;2023-04-15T00:58:49;3.80;99.90
46364;DHT22;32071;49.036;9.344;2023-04-15T01:01:17;3.80;99.90
46364;DHT22;32071;49.036;9.344;2023-04-15T01:03:44;3.80;99.90
46364;DHT22;32071;49.036;9.344;2023-04-15T01:06:10;3.80;99.90
46364;DHT22;32071;49.036;9.344;2023-04-15T01:08:36;3.80;99.90
46364;DHT22;32071;49.036;9.344;2023-04-15T01:11:02;3.80;99.90
46364;DHT22;32071;49.036;9.344;2023-04-15T01:13:28;3.80;99.90
46364;DHT22;32071;49.036;9.344;2023-04-15T01:15:55;3.80;99.90
46364;DHT22;32071;49.036;9.344;2023-04-15T01:18:22;3.80;99.90
46364;DHT22;32071;49.036;9.344;2023-04-15T01:20:48;3.70;99.90
46364;DHT22;32071;49.036;9.344;2023-04-15T01:23:14;3.70;99.90
46364;DHT22;32071;49.036;9.344;2023-04-15T01:25:42;3.60;99.90
46364;DHT22;32071;49.036;9.344;2023-04-15T01:28:08;3.60;99.90
46364;DHT22;32071;49.036;9.344;2023-04-15T01:30:34;3.60;99.90
46364;DHT22;32071;49.036;9.344;2023-04-15T01:33:00;3.60;99.90
46364;DHT22;32071;49.036;9.344;2023-04-15T01:35:25;3.60;99.90
46364;DHT22;32071;49.036;9.344;2023-04-15T01:37:52;3.60;99.90
46364;DHT22;32071;49.036;9.344;2023-04-15T01:40:19;3.60;99.90
46364;DHT22;32071;49.036;9.344;2023-04-15T01:42:45;3.60;99.90
46364;DHT22;32071;49.036;9.344;2023-04-15T01:45:11;3.60;99.90
46364;DHT22;32071;49.036;9.344;2023-04-15T01:47:38;3.60;99.90
46364;DHT22;32071;49.036;9.344;2023-04-15T01:50:04;3.50;99.90
46364;DHT22;32071;49.036;9.344;2023-04-15T01:52:31;3.50;99.90
46364;DHT22;32071;49.036;9.344;2023-04-15T01:54:56;3.50;99.90
46364;DHT22;32071;49.036;9.344;2023-04-15T01:57:22;3.50;99.90
46364;DHT22;32071;49.036;9.344;2023-04-15T01:59:48;3.50;99.90
46364;DHT22;32071;49.036;9.344;2023-04-15T02:02:13;3.50;99.90
46364;DHT22;32071;49.036;9.344;2023-04-15T02:04:39;3.40;99.90
46364;DHT22;32071;49.036;9.344;2023-04-15T02:07:05;3.40;99.90
46364;DHT22;32071;49.036;9.344;2023-04-15T02:09:31;3.40;99.90
46364;DHT22;32071;49.036;9.344;2023-04-15T02:11:57;3.30;99.90
46364;DHT22;32071;49.036;9.344;2023-04-15T02:14:22;3.30;99.90
46364;DHT22;32071;49.036;9.344;2023-04-15T02:16:48;3.20;99.90
46364;DHT22;32071;49.036;9.344;2023-04-15T02:19:13;3.20;99.90
46364;DHT22;32071;49.036;9.344;2023-04-15T02:21:39;3.20;99.90
46364;DHT22;32071;49.036;9.344;2023-04-15T02:24:06;3.20;99.90
46364;DHT22;32071;49.036;9.344;2023-04-15T02:26:31;3.10;99.90
46364;DHT22;32071;49.036;9.344;2023-04-15T02:28:58;3.00;99.90
46364;DHT22;32071;49.036;9.344;2023-04-15T02:31:24;3.00;99.90
46364;DHT22;32071;49.036;9.344;2023-04-15T02:33:50;3.00;99.90
46364;DHT22;32071;49.036;9.344;2023-04-15T02:36:16;2.90;99.90
46364;DHT22;32071;49.036;9.344;2023-04-15T02:38:41;2.90;99.90
46364;DHT22;32071;49.036;9.344;2023-04-15T02:41:10;2.80;99.90
46364;DHT22;32071;49.036;9.344;2023-04-15T02:43:36;2.80;99.90
46364;DHT22;32071;49.036;9.344;2023-04-15T02:46:04;2.70;99.90
46364;DHT22;32071;49.036;9.344;2023-04-15T02:48:30;2.70;99.90
46364;DHT22;32071;49.036;9.344;2023-04-15T02:51:13;2.70;99.90
46364;DHT22;32071;49.036;9.344;2023-04-15T02:53:39;2.70;99.90
46364;DHT22;32071;49.036;9.344;2023-04-15T02:56:06;2.70;99.90
46364;DHT22;32071;49.036;9.344;2023-04-15T02:58:33;2.60;99.90
46364;DHT22;32071;49.036;9.344;2023-04-15T03:00:59;2.60;99.90
46364;DHT22;32071;49.036;9.344;2023-04-15T03:03:25;2.50;99.90
46364;DHT22;32071;49.036;9.344;2023-04-15T03:05:52;2.50;99.90
46364;DHT22;32071;49.036;9.344;2023-04-15T03:08:17;2.50;99.90
46364;DHT22;32071;49.036;9.344;2023-04-15T03:10:43;2.50;99.90
46364;DHT22;32071;49.036;9.344;2023-04-15T03:13:09;2.50;99.90
46364;DHT22;32071;49.036;9.344;2023-04-15T03:15:34;2.50;99.90
46364;DHT22;32071;49.036;9.344;2023-04-15T03:18:00;2.60;99.90
46364;DHT22;32071;49.036;9.344;2023-04-15T03:20:26;2.60;99.90
46364;DHT22;32071;49.036;9.344;2023-04-15T03:22:51;2.70;99.90
46364;DHT22;32071;49.036;9.344;2023-04-15T03:25:17;2.70;99.90
46364;DHT22;32071;49.036;9.344;2023-04-15T03:27:43;2.70;99.90
46364;DHT22;32071;49.036;9.344;2023-04-15T03:30:09;2.80;99.90
46364;DHT22;32071;49.036;9.344;2023-04-15T03:32:34;2.80;99.90
46364;DHT22;32071;49.036;9.344;2023-04-15T03:35:00;2.80;99.90
46364;DHT22;32071;49.036;9.344;2023-04-15T03:37:25;2.80;99.90
46364;DHT22;32071;49.036;9.344;2023-04-15T03:39:51;2.90;99.90
46364;DHT22;32071;49.036;9.344;2023-04-15T03:42:17;2.90;99.90
46364;DHT22;32071;49.036;9.344;2023-04-15T03:44:42;2.90;99.90
46364;DHT22;32071;49.036;9.344;2023-04-15T03:47:08;2.80;99.90
46364;DHT22;32071;49.036;9.344;2023-04-15T03:49:34;2.80;99.90
46364;DHT22;32071;49.036;9.344;2023-04-15T03:52:00;2.80;99.90
46364;DHT22;32071;49.036;9.344;2023-04-15T03:54:25;2.80;99.90
46364;DHT22;32071;49.036;9.344;2023-04-15T03:56:51;2.80;99.90
46364;DHT22;32071;49.036;9.344;2023-04-15T03:59:17;2.80;99.90
46364;DHT22;32071;49.036;9.344;2023-04-15T04:01:42;2.80;99.90
46364;DHT22;32071;49.036;9.344;2023-04-15T04:04:08;2.80;99.90
46364;DHT22;32071;49.036;9.344;2023-04-15T04:06:33;2.70;99.90
46364;DHT22;32071;49.036;9.344;2023-04-15T04:08:59;2.70;99.90
46364;DHT22;32071;49.036;9.344;2023-04-15T04:11:25;2.70;99.90
46364;DHT22;32071;49.036;9.344;2023-04-15T04:13:52;2.70;99.90
46364;DHT22;32071;49.036;9.344;2023-04-15T04:16:18;2.70;99.90
46364;DHT22;32071;49.036;9.344;2023-04-15T04:18:43;2.70;99.90
46364;DHT22;32071;49.036;9.344;2023-04-15T04:21:11;2.70;99.90
46364;DHT22;32071;49.036;9.344;2023-04-15T04:23:36;2.70;99.90
46364;DHT22;32071;49.036;9.344;2023-04-15T04:26:02;2.60;99.90
46364;DHT22;32071;49.036;9.344;2023-04-15T04:28:27;2.60;99.90
46364;DHT22;32071;49.036;9.344;2023-04-15T04:30:53;2.60;99.90
46364;DHT22;32071;49.036;9.344;2023-04-15T04:33:19;2.60;99.90
46364;DHT22;32071;49.036;9.344;2023-04-15T04:35:44;2.60;99.90
46364;DHT22;32071;49.036;9.344;2023-04-15T04:38:10;2.50;99.90
46364;DHT22;32071;49.036;9.344;2023-04-15T04:40:36;2.50;99.90
46364;DHT22;32071;49.036;9.344;2023-04-15T04:43:01;2.40;99.90
46364;DHT22;32071;49.036;9.344;2023-04-15T04:45:27;2.40;99.90
46364;DHT22;32071;49.036;9.344;2023-04-15T04:47:53;2.40;99.90
46364;DHT22;32071;49.036;9.344;2023-04-15T04:50:18;2.40;99.90
46364;DHT22;32071;49.036;9.344;2023-04-15T04:52:44;2.40;99.90
46364;DHT22;32071;49.036;9.344;2023-04-15T04:55:09;2.40;99.90
46364;DHT22;32071;49.036;9.344;2023-04-15T04:57:35;2.40;99.90
46364;DHT22;32071;49.036;9.344;2023-04-15T05:00:01;2.40;99.90
46364;DHT22;32071;49.036;9.344;2023-04-15T05:02:29;2.30;99.90
46364;DHT22;32071;49.036;9.344;2023-04-15T05:04:55;2.20;99.90
46364;DHT22;32071;49.036;9.344;2023-04-15T05:07:21;2.20;99.90
46364;DHT22;32071;49.036;9.344;2023-04-15T05:09:46;2.20;99.90
46364;DHT22;32071;49.036;9.344;2023-04-15T05:12:12;2.20;99.90
46364;DHT22;32071;49.036;9.344;2023-04-15T05:14:40;2.20;99.90
46364;DHT22;32071;49.036;9.344;2023-04-15T05:17:06;2.30;99.90
46364;DHT22;32071;49.036;9.344;2023-04-15T05:19:32;2.30;99.90
46364;DHT22;32071;49.036;9.344;2023-04-15T05:21:58;2.30;99.90
46364;DHT22;32071;49.036;9.344;2023-04-15T05:24:23;2.40;99.90
46364;DHT22;32071;49.036;9.344;2023-04-15T05:26:49;2.30;99.90
46364;DHT22;32071;49.036;9.344;2023-04-15T05:29:14;2.30;99.90
46364;DHT22;32071;49.036;9.344;2023-04-15T05:31:48;2.40;99.90
46364;DHT22;32071;49.036;9.344;2023-04-15T05:34:14;2.40;99.90
46364;DHT22;32071;49.036;9.344;2023-04-15T05:36:41;2.40;99.90
46364;DHT22;32071;49.036;9.344;2023-04-15T05:39:07;2.50;99.90
46364;DHT22;32071;49.036;9.344;2023-04-15T05:41:32;2.50;99.90
46364;DHT22;32071;49.036;9.344;2023-04-15T05:43:58;2.60;99.90
46364;DHT22;32071;49.036;9.344;2023-04-15T05:46:24;2.60;99.90
46364;DHT22;32071;49.036;9.344;2023-04-15T05:48:50;2.70;99.90
46364;DHT22;32071;49.036;9.344;2023-04-15T05:51:15;2.70;99.90
46364;DHT22;32071;49.036;9.344;2023-04-15T05:53:41;2.80;99.90
46364;DHT22;32071;49.036;9.344;2023-04-15T05:56:07;2.90;99.90
46364;DHT22;32071;49.036;9.344;2023-04-15T05:58:33;3.00;99.90
46364;DHT22;32071;49.036;9.344;2023-04-15T06:00:58;3.10;99.90
46364;DHT22;32071;49.036;9.344;2023-04-15T06:03:24;3.10;99.90
46364;DHT22;32071;49.036;9.344;2023-04-15T06:05:50;3.20;99.90
46364;DHT22;32071;49.036;9.344;2023-04-15T06:08:16;3.30;99.90
46364;DHT22;32071;49.036;9.344;2023-04-15T06:10:42;3.40;99.90
46364;DHT22;32071;49.036;9.344;2023-04-15T06:13:07;3.50;99.90
46364;DHT22;32071;49.036;9.344;2023-04-15T06:15:33;3.60;99.90
46364;DHT22;32071;49.036;9.344;2023-04-15T06:17:58;3.80;99.90
46364;DHT22;32071;49.036;9.344;2023-04-15T06:20:24;3.90;99.90
46364;DHT22;32071;49.036;9.344;2023-04-15T06:22:49;4.10;99.90
46364;DHT22;32071;49.036;9.344;2023-04-15T06:25:15;4.30;99.90
46364;DHT22;32071;49.036;9.344;2023-04-15T06:27:41;4.40;99.90
46364;DHT22;32071;49.036;9.344;2023-04-15T06:30:07;4.50;99.90
46364;DHT22;32071;49.036;9.344;2023-04-15T06:32:33;4.60;99.90
46364;DHT22;32071;49.036;9.344;2023-04-15T06:34:58;4.80;99.90
46364;DHT22;32071;49.036;9.344;2023-04-15T06:37:24;5.00;99.90
46364;DHT22;32071;49.036;9.344;2023-04-15T06:39:49;5.20;99.90
46364;DHT22;32071;49.036;9.344;2023-04-15T06:42:16;5.30;99.90
46364;DHT22;32071;49.036;9.344;2023-04-15T06:44:41;5.40;99.90
46364;DHT22;32071;49.036;9.344;2023-04-15T06:47:07;5.50;99.90
46364;DHT22;32071;49.036;9.344;2023-04-15T06:49:33;5.50;99.90
46364;DHT22;32071;49.036;9.344;2023-04-15T06:51:59;5.50;99.90
46364;DHT22;32071;49.036;9.344;2023-04-15T06:54:25;5.50;99.90
46364;DHT22;32071;49.036;9.344;2023-04-15T06:56:51;5.60;99.90
46364;DHT22;32071;49.036;9.344;2023-04-15T06:59:17;5.60;99.90
46364;DHT22;32071;49.036;9.344;2023-04-15T07:01:43;5.70;99.90
46364;DHT22;32071;49.036;9.344;2023-04-15T07:04:08;5.90;99.90
46364;DHT22;32071;49.036;9.344;2023-04-15T07:06:34;6.00;99.90
46364;DHT22;32071;49.036;9.344;2023-04-15T07:09:00;6.20;99.90
46364;DHT22;32071;49.036;9.344;2023-04-15T07:11:26;6.30;99.90
46364;DHT22;32071;49.036;9.344;2023-04-15T07:13:51;6.40;99.90
46364;DHT22;32071;49.036;9.344;2023-04-15T07:16:17;6.50;99.90
46364;DHT22;32071;49.036;9.344;2023-04-15T07:18:43;6.60;99.90
46364;DHT22;32071;49.036;9.344;2023-04-15T07:21:09;6.70;99.90
46364;DHT22;32071;49.036;9.344;2023-04-15T07:23:34;6.80;99.90
46364;DHT22;32071;49.036;9.344;2023-04-15T07:26:02;6.80;99.90
46364;DHT22;32071;49.036;9.344;2023-04-15T07:28:27;6.90;99.90
46364;DHT22;32071;49.036;9.344;2023-04-15T07:30:54;6.90;99.90
46364;DHT22;32071;49.036;9.344;2023-04-15T07:33:19;7.10;99.90
46364;DHT22;32071;49.036;9.344;2023-04-15T07:35:45;7.20;99.90
46364;DHT22;32071;49.036;9.344;2023-04-15T07:38:11;7.40;99.90
46364;DHT22;32071;49.036;9.344;2023-04-15T07:40:38;7.50;99.90
46364;DHT22;32071;49.036;9.344;2023-04-15T07:43:04;7.60;99.90
46364;DHT22;32071;49.036;9.344;2023-04-15T07:45:30;7.80;99.90
46364;DHT22;32071;49.036;9.344;2023-04-15T07:47:55;7.90;99.90
46364;DHT22;32071;49.036;9.344;2023-04-15T07:50:21;8.00;99.90
46364;DHT22;32071;49.036;9.344;2023-04-15T07:52:48;8.10;99.90
46364;DHT22;32071;49.036;9.344;2023-04-15T07:55:14;8.30;99.90
46364;DHT22;32071;49.036;9.344;2023-04-15T07:57:41;8.30;99.90
46364;DHT22;32071;49.036;9.344;2023-04-15T08:00:07;8.40;99.90
46364;DHT22;32071;49.036;9.344;2023-04-15T08:02:34;8.50;99.90
46364;DHT22;32071;49.036;9.344;2023-04-15T08:04:59;8.70;99.90
46364;DHT22;32071;49.036;9.344;2023-04-15T08:07:27;8.70;99.90
46364;DHT22;32071;49.036;9.344;2023-04-15T08:09:53;8.80;99.90
46364;DHT22;32071;49.036;9.344;2023-04-15T08:12:18;8.90;99.90
46364;DHT22;32071;49.036;9.344;2023-04-15T08:14:44;8.90;99.90
46364;DHT22;32071;49.036;9.344;2023-04-15T08:17:10;8.90;99.90
46364;DHT22;32071;49.036;9.344;2023-04-15T08:19:35;8.90;99.90
46364;DHT22;32071;49.036;9.344;2023-04-15T08:22:01;9.00;99.90
46364;DHT22;32071;49.036;9.344;2023-04-15T08:24:27;9.00;99.90
46364;DHT22;32071;49.036;9.344;2023-04-15T08:26:52;9.20;99.90
46364;DHT22;32071;49.036;9.344;2023-04-15T08:29:18;9.30;99.90
46364;DHT22;32071;49.036;9.344;2023-04-15T08:31:44;9.50;99.90
46364;DHT22;32071;49.036;9.344;2023-04-15T08:34:12;9.60;99.90
46364;DHT22;32071;49.036;9.344;2023-04-15T08:36:38;9.80;99.90
46364;DHT22;32071;49.036;9.344;2023-04-15T08:39:04;10.10;99.90
46364;DHT22;32071;49.036;9.344;2023-04-15T08:41:38;10.20;99.90
46364;DHT22;32071;49.036;9.344;2023-04-15T08:44:04;10.30;99.90
46364;DHT22;32071;49.036;9.344;2023-04-15T08:46:31;10.40;99.90
46364;DHT22;32071;49.036;9.344;2023-04-15T08:48:59;10.50;99.90
46364;DHT22;32071;49.036;9.344;2023-04-15T08:51:28;10.70;99.90
46364;DHT22;32071;49.036;9.344;2023-04-15T08:53:54;10.90;99.90
46364;DHT22;32071;49.036;9.344;2023-04-15T08:56:23;11.20;99.90
46364;DHT22;32071;49.036;9.344;2023-04-15T08:58:49;11.40;99.90
46364;DHT22;32071;49.036;9.344;2023-04-15T09:01:15;11.60;99.90
46364;DHT22;32071;49.036;9.344;2023-04-15T09:03:41;11.80;99.90
46364;DHT22;32071;49.036;9.344;2023-04-15T09:06:07;12.00;99.90
46364;DHT22;32071;49.036;9.344;2023-04-15T09:08:33;12.20;99.90
46364;DHT22;32071;49.036;9.344;2023-04-15T09:11:03;12.30;99.90
46364;DHT22;32071;49.036;9.344;2023-04-15T09:13:29;12.50;99.90
46364;DHT22;32071;49.036;9.344;2023-04-15T09:15:55;12.60;99.90
46364;DHT22;32071;49.036;9.344;2023-04-15T09:18:29;12.80;99.90
46364;DHT22;32071;49.036;9.344;2023-04-15T09:20:55;13.00;99.90
46364;DHT22;32071;49.036;9.344;2023-04-15T09:23:29;13.00;99.90
46364;DHT22;32071;49.036;9.344;2023-04-15T09:25:56;12.80;99.90
46364;DHT22;32071;49.036;9.344;2023-04-15T09:28:25;12.70;99.90
46364;DHT22;32071;49.036;9.344;2023-04-15T09:30:55;12.60;99.90
46364;DHT22;32071;49.036;9.344;2023-04-15T09:33:22;12.60;99.90
46364;DHT22;32071;49.036;9.344;2023-04-15T09:36:03;12.60;99.90
46364;DHT22;32071;49.036;9.344;2023-04-15T09:38:30;12.70;99.90
46364;DHT22;32071;49.036;9.344;2023-04-15T09:40:57;12.80;99.90
46364;DHT22;32071;49.036;9.344;2023-04-15T09:43:36;13.10;99.90
46364;DHT22;32071;49.036;9.344;2023-04-15T09:46:02;13.10;99.90
46364;DHT22;32071;49.036;9.344;2023-04-15T09:48:28;13.10;99.90
46364;DHT22;32071;49.036;9.344;2023-04-15T09:50:59;13.20;99.90
46364;DHT22;32071;49.036;9.344;2023-04-15T09:53:26;13.30;99.90
46364;DHT22;32071;49.036;9.344;2023-04-15T09:55:57;13.40;99.90
46364;DHT22;32071;49.036;9.344;2023-04-15T09:58:27;13.50;99.90
46364;DHT22;32071;49.036;9.344;2023-04-15T10:00:54;13.80;99.90
46364;DHT22;32071;49.036;9.344;2023-04-15T10:03:25;13.90;99.90
46364;DHT22;32071;49.036;9.344;2023-04-15T10:05:53;13.90;99.90
46364;DHT22;32071;49.036;9.344;2023-04-15T10:08:21;14.30;99.90
46364;DHT22;32071;49.036;9.344;2023-04-15T10:10:48;14.40;99.90
46364;DHT22;32071;49.036;9.344;2023-04-15T10:13:16;14.40;99.90
46364;DHT22;32071;49.036;9.344;2023-04-15T10:15:51;14.40;99.90
46364;DHT22;32071;49.036;9.344;2023-04-15T10:18:21;14.30;99.10
46364;DHT22;32071;49.036;9.344;2023-04-15T10:20:48;14.20;99.80
46364;DHT22;32071;49.036;9.344;2023-04-15T10:23:14;14.20;99.30
46364;DHT22;32071;49.036;9.344;2023-04-15T10:25:41;14.30;98.30
46364;DHT22;32071;49.036;9.344;2023-04-15T10:28:07;14.20;98.90
46364;DHT22;32071;49.036;9.344;2023-04-15T10:30:33;14.00;99.30
46364;DHT22;32071;49.036;9.344;2023-04-15T10:33:02;14.10;98.10
46364;DHT22;32071;49.036;9.344;2023-04-15T10:35:29;14.10;98.40
46364;DHT22;32071;49.036;9.344;2023-04-15T10:37:56;14.20;98.20
46364;DHT22;32071;49.036;9.344;2023-04-15T10:40:27;14.40;99.40
46364;DHT22;32071;49.036;9.344;2023-04-15T10:42:54;14.50;98.50
46364;DHT22;32071;49.036;9.344;2023-04-15T10:45:21;14.50;99.00
46364;DHT22;32071;49.036;9.344;2023-04-15T10:47:51;14.50;98.60
46364;DHT22;32071;49.036;9.344;2023-04-15T10:50:19;14.50;99.30
46364;DHT22;32071;49.036;9.344;2023-04-15T10:52:44;14.60;97.80
46364;DHT22;32071;49.036;9.344;2023-04-15T10:55:13;14.50;97.60
46364;DHT22;32071;49.036;9.344;2023-04-15T10:57:43;14.50;98.20
46364;DHT22;32071;49.036;9.344;2023-04-15T11:00:15;14.40;98.10
46364;DHT22;32071;49.036;9.344;2023-04-15T11:05:14;14.10;97.60
46364;DHT22;32071;49.036;9.344;2023-04-15T11:13:13;13.90;98.30
46364;DHT22;32071;49.036;9.344;2023-04-15T11:15:44;14.00;98.90
46364;DHT22;32071;49.036;9.344;2023-04-15T11:18:18;14.10;98.90
46364;DHT22;32071;49.036;9.344;2023-04-15T11:20:47;14.10;98.50
46364;DHT22;32071;49.036;9.344;2023-04-15T11:23:26;13.90;99.70
46364;DHT22;32071;49.036;9.344;2023-04-15T11:25:55;13.80;98.70
46364;DHT22;32071;49.036;9.344;2023-04-15T11:28:28;13.80;99.90
46364;DHT22;32071;49.036;9.344;2023-04-15T11:30:55;14.00;99.20
46364;DHT22;32071;49.036;9.344;2023-04-15T11:33:22;14.10;99.90
46364;DHT22;32071;49.036;9.344;2023-04-15T11:35:48;14.20;99.90
46364;DHT22;32071;49.036;9.344;2023-04-15T11:38:14;14.30;99.70
46364;DHT22;32071;49.036;9.344;2023-04-15T11:40:41;14.40;99.30
46364;DHT22;32071;49.036;9.344;2023-04-15T11:45:35;14.70;97.40
46364;DHT22;32071;49.036;9.344;2023-04-15T11:48:22;14.80;98.50
46364;DHT22;32071;49.036;9.344;2023-04-15T11:50:53;15.00;98.40
46364;DHT22;32071;49.036;9.344;2023-04-15T11:53:19;15.00;98.20
46364;DHT22;32071;49.036;9.344;2023-04-15T11:55:47;15.10;98.30
46364;DHT22;32071;49.036;9.344;2023-04-15T11:58:14;15.00;97.90
46364;DHT22;32071;49.036;9.344;2023-04-15T12:00:46;15.00;98.00
46364;DHT22;32071;49.036;9.344;2023-04-15T12:06:17;14.90;97.30
46364;DHT22;32071;49.036;9.344;2023-04-15T12:11:35;14.40;92.20
46364;DHT22;32071;49.036;9.344;2023-04-15T12:14:12;14.20;90.70
46364;DHT22;32071;49.036;9.344;2023-04-15T12:16:41;14.00;89.60
46364;DHT22;32071;49.036;9.344;2023-04-15T12:19:10;13.90;90.10
46364;DHT22;32071;49.036;9.344;2023-04-15T12:21:38;13.80;89.10
46364;DHT22;32071;49.036;9.344;2023-04-15T12:24:08;13.80;90.80
46364;DHT22;32071;49.036;9.344;2023-04-15T12:26:45;13.60;88.60
46364;DHT22;32071;49.036;9.344;2023-04-15T12:29:13;13.50;89.10
46364;DHT22;32071;49.036;9.344;2023-04-15T12:31:54;13.40;91.40
46364;DHT22;32071;49.036;9.344;2023-04-15T12:34:32;13.30;90.30
46364;DHT22;32071;49.036;9.344;2023-04-15T12:36:59;13.10;90.60
46364;DHT22;32071;49.036;9.344;2023-04-15T12:39:27;12.90;88.60
46364;DHT22;32071;49.036;9.344;2023-04-15T12:41:54;12.90;90.40
46364;DHT22;32071;49.036;9.344;2023-04-15T12:44:21;12.80;89.60
46364;DHT22;32071;49.036;9.344;2023-04-15T12:46:49;12.70;89.10
46364;DHT22;32071;49.036;9.344;2023-04-15T12:49:14;12.70;89.90
46364;DHT22;32071;49.036;9.344;2023-04-15T12:51:41;12.70;90.00
46364;DHT22;32071;49.036;9.344;2023-04-15T12:54:06;12.60;91.00
46364;DHT22;32071;49.036;9.344;2023-04-15T12:56:32;12.60;89.20
46364;DHT22;32071;49.036;9.344;2023-04-15T12:58:57;12.60;88.70
46364;DHT22;32071;49.036;9.344;2023-04-15T13:01:23;12.50;87.30
46364;DHT22;32071;49.036;9.344;2023-04-15T13:03:49;12.40;88.30
46364;DHT22;32071;49.036;9.344;2023-04-15T13:06:15;12.30;89.30
46364;DHT22;32071;49.036;9.344;2023-04-15T13:08:41;12.30;88.40
46364;DHT22;32071;49.036;9.344;2023-04-15T13:11:06;12.30;88.80
46364;DHT22;32071;49.036;9.344;2023-04-15T13:13:32;12.30;88.30
46364;DHT22;32071;49.036;9.344;2023-04-15T13:15:58;12.20;87.00
46364;DHT22;32071;49.036;9.344;2023-04-15T13:18:23;12.20;87.70
46364;DHT22;32071;49.036;9.344;2023-04-15T13:20:50;12.20;87.90
46364;DHT22;32071;49.036;9.344;2023-04-15T13:23:16;12.10;86.90
46364;DHT22;32071;49.036;9.344;2023-04-15T13:25:41;12.10;88.10
46364;DHT22;32071;49.036;9.344;2023-04-15T13:28:09;12.10;87.90
46364;DHT22;32071;49.036;9.344;2023-04-15T13:30:37;12.10;87.50
46364;DHT22;32071;49.036;9.344;2023-04-15T13:33:03;12.00;90.40
46364;DHT22;32071;49.036;9.344;2023-04-15T13:35:28;12.00;90.40
46364;DHT22;32071;49.036;9.344;2023-04-15T13:37:54;11.90;90.70
46364;DHT22;32071;49.036;9.344;2023-04-15T13:40:20;11.90;91.50
46364;DHT22;32071;49.036;9.344;2023-04-15T13:42:46;11.90;92.00
46364;DHT22;32071;49.036;9.344;2023-04-15T13:45:11;11.80;92.40
46364;DHT22;32071;49.036;9.344;2023-04-15T13:47:37;11.80;92.20
46364;DHT22;32071;49.036;9.344;2023-04-15T13:50:04;11.80;92.30
46364;DHT22;32071;49.036;9.344;2023-04-15T13:52:29;11.80;93.10
46364;DHT22;32071;49.036;9.344;2023-04-15T13:54:55;11.90;92.60
46364;DHT22;32071;49.036;9.344;2023-04-15T13:57:21;11.90;92.90
46364;DHT22;32071;49.036;9.344;2023-04-15T13:59:46;12.00;92.50
46364;DHT22;32071;49.036;9.344;2023-04-15T14:02:12;11.90;93.10
46364;DHT22;32071;49.036;9.344;2023-04-15T14:04:37;11.90;93.60
46364;DHT22;32071;49.036;9.344;2023-04-15T14:07:03;12.00;93.80
46364;DHT22;32071;49.036;9.344;2023-04-15T14:09:28;11.90;93.40
46364;DHT22;32071;49.036;9.344;2023-04-15T14:11:54;12.00;94.90
46364;DHT22;32071;49.036;9.344;2023-04-15T14:14:20;12.00;93.40
46364;DHT22;32071;49.036;9.344;2023-04-15T14:16:46;12.00;93.80
46364;DHT22;32071;49.036;9.344;2023-04-15T14:19:13;12.00;94.10
46364;DHT22;32071;49.036;9.344;2023-04-15T14:21:38;12.10;94.70
46364;DHT22;32071;49.036;9.344;2023-04-15T14:24:04;12.20;94.80
46364;DHT22;32071;49.036;9.344;2023-04-15T14:26:30;12.20;93.70
46364;DHT22;32071;49.036;9.344;2023-04-15T14:28:56;12.20;94.10
46364;DHT22;32071;49.036;9.344;2023-04-15T14:31:21;12.10;93.90
46364;DHT22;32071;49.036;9.344;2023-04-15T14:33:47;11.90;93.90
46364;DHT22;32071;49.036;9.344;2023-04-15T14:36:12;11.80;94.80
46364;DHT22;32071;49.036;9.344;2023-04-15T14:38:38;11.70;94.10
46364;DHT22;32071;49.036;9.344;2023-04-15T14:41:07;11.60;94.80
46364;DHT22;32071;49.036;9.344;2023-04-15T14:43:33;11.60;95.10
46364;DHT22;32071;49.036;9.344;2023-04-15T14:45:59;11.50;94.90
46364;DHT22;32071;49.036;9.344;2023-04-15T14:48:25;11.50;95.70
46364;DHT22;32071;49.036;9.344;2023-04-15T14:50:51;11.50;96.50
46364;DHT22;32071;49.036;9.344;2023-04-15T14:53:16;11.60;97.30
46364;DHT22;32071;49.036;9.344;2023-04-15T14:55:42;11.60;98.30
46364;DHT22;32071;49.036;9.344;2023-04-15T14:58:08;11.60;99.00
46364;DHT22;32071;49.036;9.344;2023-04-15T15:00:34;11.60;98.80
46364;DHT22;32071;49.036;9.344;2023-04-15T15:03:00;11.60;99.30
46364;DHT22;32071;49.036;9.344;2023-04-15T15:05:26;11.60;99.90
46364;DHT22;32071;49.036;9.344;2023-04-15T15:07:51;11.50;99.90
46364;DHT22;32071;49.036;9.344;2023-04-15T15:10:17;11.30;99.90
46364;DHT22;32071;49.036;9.344;2023-04-15T15:12:43;11.20;99.90
46364;DHT22;32071;49.036;9.344;2023-04-15T15:15:08;11.00;99.90
46364;DHT22;32071;49.036;9.344;2023-04-15T15:17:35;10.80;99.90
46364;DHT22;32071;49.036;9.344;2023-04-15T15:20:00;10.70;99.90
46364;DHT22;32071;49.036;9.344;2023-04-15T15:22:27;10.60;99.90
46364;DHT22;32071;49.036;9.344;2023-04-15T15:24:53;10.50;99.90
46364;DHT22;32071;49.036;9.344;2023-04-15T15:27:19;10.50;99.90
46364;DHT22;32071;49.036;9.344;2023-04-15T15:29:44;10.40;99.90
46364;DHT22;32071;49.036;9.344;2023-04-15T15:32:10;10.50;99.90
46364;DHT22;32071;49.036;9.344;2023-04-15T15:34:35;10.40;99.90
46364;DHT22;32071;49.036;9.344;2023-04-15T15:37:01;10.30;99.90
46364;DHT22;32071;49.036;9.344;2023-04-15T15:39:28;10.30;99.90
46364;DHT22;32071;49.036;9.344;2023-04-15T15:41:54;10.30;99.90
46364;DHT22;32071;49.036;9.344;2023-04-15T15:44:19;10.20;99.90
46364;DHT22;32071;49.036;9.344;2023-04-15T15:46:45;10.20;99.90
46364;DHT22;32071;49.036;9.344;2023-04-15T15:49:10;10.10;99.90
46364;DHT22;32071;49.036;9.344;2023-04-15T15:51:36;10.10;99.90